createdAt,value
2023-02-12T00:01:29.231Z,48.75
2023-02-12T00:03:57.255Z,47.88
2023-02-12T00:06:25.590Z,47.38
2023-02-12T00:08:54.399Z,44.70
2023-02-12T00:11:23.900Z,45.20
2023-02-12T00:13:53.690Z,47.72
2023-02-12T00:16:24.098Z,46.30
2023-02-12T00:18:54.126Z,45.20
2023-02-12T00:21:22.526Z,42.95
2023-02-12T00:23:50.888Z,43.92
2023-02-12T00:26:20.925Z,47.25
2023-02-12T00:28:48.697Z,46.55
2023-02-12T00:31:20.202Z,45.90
2023-02-12T00:33:48.229Z,43.83
2023-02-12T00:36:17.434Z,46.95
2023-02-12T00:38:46.003Z,46.17
2023-02-12T00:41:14.289Z,45.45
2023-02-12T00:43:42.642Z,46.78
2023-02-12T00:46:10.625Z,44.03
2023-02-12T00:48:40.375Z,44.65
2023-02-12T00:51:08.762Z,44.25
2023-02-12T00:53:36.668Z,42.63
2023-02-12T00:56:04.856Z,46.08
2023-02-12T00:58:32.785Z,43.63
2023-02-12T01:01:00.597Z,45.35
2023-02-12T01:03:28.548Z,45.72
2023-02-12T01:05:58.316Z,44.28
2023-02-12T01:08:26.468Z,42.58
2023-02-12T01:10:58.676Z,42.25
2023-02-12T01:13:26.921Z,42.75
2023-02-12T01:16:09.310Z,42.13
2023-02-12T01:21:12.123Z,41.40
2023-02-12T01:23:39.861Z,41.70
2023-02-12T01:26:10.687Z,41.65
2023-02-12T01:28:38.785Z,43.33
2023-02-12T01:31:10.932Z,42.90
2023-02-12T01:33:38.695Z,41.85
2023-02-12T01:36:07.150Z,43.47
2023-02-12T01:38:36.696Z,43.75
2023-02-12T01:41:06.066Z,43.42
2023-02-12T01:43:34.768Z,41.55
2023-02-12T01:46:03.652Z,42.85
2023-02-12T01:48:36.060Z,41.83
2023-02-12T01:51:05.041Z,42.42
2023-02-12T01:53:38.377Z,40.75
2023-02-12T01:56:07.615Z,39.45
2023-02-12T01:58:38.642Z,38.95
2023-02-12T02:01:09.290Z,40.58
2023-02-12T02:03:38.737Z,39.60
2023-02-12T02:06:12.481Z,39.40
2023-02-12T02:08:42.515Z,42.70
2023-02-12T02:11:24.700Z,43.22
2023-02-12T02:14:10.463Z,43.33
2023-02-12T02:16:38.770Z,42.47
2023-02-12T02:19:16.262Z,42.65
2023-02-12T02:22:08.438Z,44.10
2023-02-12T02:24:55.603Z,40.10
2023-02-12T02:27:31.515Z,40.75
2023-02-12T02:30:33.610Z,44.28
2023-02-12T02:33:14.259Z,45.47
2023-02-12T02:35:50.110Z,42.42
2023-02-12T02:38:25.480Z,42.03
2023-02-12T02:40:59.710Z,43.00
2023-02-12T02:43:31.034Z,42.15
2023-02-12T02:46:06.690Z,41.90
2023-02-12T02:48:38.900Z,43.03
2023-02-12T02:51:10.577Z,40.78
2023-02-12T02:53:43.383Z,42.85
2023-02-12T02:56:15.862Z,42.80
2023-02-12T03:01:19.385Z,41.10
2023-02-12T03:03:52.122Z,39.38
2023-02-12T03:06:25.471Z,40.28
2023-02-12T03:08:57.908Z,43.10
2023-02-12T03:14:00.869Z,44.75
2023-02-12T03:16:34.565Z,41.50
2023-02-12T03:19:09.284Z,42.03
2023-02-12T03:21:41.916Z,40.53
2023-02-12T03:24:16.234Z,40.60
2023-02-12T03:26:48.203Z,40.40
2023-02-12T03:29:16.174Z,41.25
2023-02-12T03:31:56.946Z,42.92
2023-02-12T03:34:32.078Z,44.50
2023-02-12T03:37:04.278Z,46.60
2023-02-12T03:39:37.432Z,44.42
2023-02-12T03:42:10.102Z,46.47
2023-02-12T03:44:58.200Z,44.90
2023-02-12T03:47:38.795Z,46.78
2023-02-12T03:50:14.354Z,43.80
2023-02-12T03:52:43.269Z,42.10
2023-02-12T03:55:14.501Z,44.58
2023-02-12T03:57:45.669Z,44.10
2023-02-12T04:00:19.251Z,45.13
2023-02-12T04:02:48.918Z,47.28
2023-02-12T04:05:19.956Z,42.88
2023-02-12T04:07:48.185Z,42.83
2023-02-12T04:10:16.762Z,45.72
2023-02-12T04:12:52.833Z,45.30
2023-02-12T04:15:44.830Z,45.17
2023-02-12T04:18:20.161Z,43.40
2023-02-12T04:20:56.279Z,45.45
2023-02-12T04:23:40.418Z,45.78
2023-02-12T04:26:17.343Z,45.22
2023-02-12T04:28:58.074Z,44.88
2023-02-12T04:31:33.108Z,42.75
2023-02-12T04:34:08.416Z,49.55
2023-02-12T04:36:42.592Z,43.85
2023-02-12T04:39:16.204Z,43.08
2023-02-12T04:41:43.868Z,44.25
2023-02-12T04:44:16.350Z,43.50
2023-02-12T04:49:16.585Z,43.55
2023-02-12T04:51:44.850Z,41.42
2023-02-12T04:54:12.563Z,42.15
2023-02-12T04:56:40.227Z,41.42
2023-02-12T04:59:07.974Z,43.80
2023-02-12T05:01:36.305Z,42.70
2023-02-12T05:04:04.958Z,46.15
2023-02-12T05:06:36.400Z,43.40
2023-02-12T05:09:04.723Z,45.50
2023-02-12T05:11:32.741Z,43.08
2023-02-12T05:14:01.032Z,44.28
2023-02-12T05:16:28.743Z,42.17
2023-02-12T05:18:56.421Z,45.05
2023-02-12T05:21:24.118Z,44.38
2023-02-12T05:23:53.127Z,42.25
2023-02-12T05:26:23.503Z,43.33
2023-02-12T05:28:51.214Z,44.80
2023-02-12T05:31:21.600Z,43.55
2023-02-12T05:33:51.094Z,44.55
2023-02-12T05:36:20.944Z,44.03
2023-02-12T05:38:48.925Z,43.08
2023-02-12T05:41:20.140Z,44.75
2023-02-12T05:43:49.753Z,42.10
2023-02-12T05:46:19.013Z,41.55
2023-02-12T05:48:47.527Z,44.72
2023-02-12T05:51:18.070Z,41.60
2023-02-12T05:53:45.685Z,44.22
2023-02-12T05:56:15.552Z,42.80
2023-02-12T05:58:46.759Z,45.40
2023-02-12T06:01:16.548Z,44.95
2023-02-12T06:03:44.695Z,44.60
2023-02-12T06:06:12.911Z,42.55
2023-02-12T06:08:41.023Z,42.63
2023-02-12T06:11:11.942Z,45.60
2023-02-12T06:13:39.674Z,44.40
2023-02-12T06:16:17.068Z,40.38
2023-02-12T06:18:44.844Z,43.17
2023-02-12T06:21:12.658Z,45.90
2023-02-12T06:23:40.494Z,45.90
2023-02-12T06:26:11.841Z,42.75
2023-02-12T06:28:39.874Z,41.45
2023-02-12T06:31:19.410Z,45.75
2023-02-12T06:33:47.393Z,41.28
2023-02-12T06:36:15.152Z,43.17
2023-02-12T06:38:43.288Z,43.30
2023-02-12T06:41:11.223Z,42.75
2023-02-12T06:43:39.098Z,42.10
2023-02-12T06:46:07.863Z,43.67
2023-02-12T06:48:37.166Z,41.22
2023-02-12T06:51:06.757Z,42.55
2023-02-12T06:53:35.082Z,41.55
2023-02-12T06:56:03.285Z,41.83
2023-02-12T06:58:31.604Z,42.30
2023-02-12T07:01:08.582Z,43.22
2023-02-12T07:03:39.292Z,41.80
2023-02-12T07:06:07.608Z,39.20
2023-02-12T07:08:35.313Z,38.13
2023-02-12T07:11:03.113Z,42.45
2023-02-12T07:13:30.800Z,42.42
2023-02-12T07:15:58.828Z,43.15
2023-02-12T07:18:26.782Z,38.45
2023-02-12T07:20:57.191Z,40.58
2023-02-12T07:23:24.906Z,42.13
2023-02-12T07:25:56.714Z,43.65
2023-02-12T07:28:25.425Z,43.03
2023-02-12T07:30:53.307Z,41.53
2023-02-12T07:33:21.868Z,40.42
2023-02-12T07:35:49.636Z,42.28
2023-02-12T07:38:18.767Z,39.55
2023-02-12T07:40:46.522Z,41.35
2023-02-12T07:43:14.438Z,40.47
2023-02-12T07:45:42.248Z,41.53
2023-02-12T07:48:10.067Z,41.72
2023-02-12T07:50:37.794Z,42.58
2023-02-12T07:53:05.561Z,44.67
2023-02-12T07:55:34.686Z,41.97
2023-02-12T07:58:02.381Z,41.58
2023-02-12T08:00:30.075Z,39.50
2023-02-12T08:02:57.796Z,40.65
2023-02-12T08:05:25.671Z,42.17
2023-02-12T08:07:53.383Z,44.08
2023-02-12T08:10:22.337Z,43.08
2023-02-12T08:12:51.601Z,42.38
2023-02-12T08:15:19.495Z,40.80
2023-02-12T08:17:47.169Z,42.40
2023-02-12T08:20:14.978Z,41.63
2023-02-12T08:22:42.649Z,40.38
2023-02-12T08:25:10.444Z,42.47
2023-02-12T08:27:38.286Z,41.22
2023-02-12T08:30:08.780Z,38.03
2023-02-12T08:32:36.506Z,39.35
2023-02-12T08:35:04.296Z,38.85
2023-02-12T08:37:32.052Z,39.78
2023-02-12T08:39:59.793Z,39.78
2023-02-12T08:42:27.880Z,38.53
2023-02-12T08:44:55.519Z,40.10
2023-02-12T08:47:24.626Z,39.03
2023-02-12T08:49:52.292Z,40.22
2023-02-12T08:52:20.069Z,40.42
2023-02-12T08:54:47.758Z,40.67
2023-02-12T08:57:15.460Z,39.13
2023-02-12T08:59:43.244Z,39.58
2023-02-12T09:02:12.034Z,40.00
2023-02-12T09:04:41.196Z,38.35
2023-02-12T09:07:10.833Z,38.72
2023-02-12T09:09:38.797Z,39.38
2023-02-12T09:12:06.973Z,40.03
2023-02-12T09:14:34.782Z,39.88
2023-02-12T09:17:02.686Z,38.85
2023-02-12T09:19:30.490Z,39.08
2023-02-12T09:21:59.776Z,36.53
2023-02-12T09:24:28.404Z,37.88
2023-02-12T09:26:56.244Z,37.65
2023-02-12T09:29:24.030Z,35.92
2023-02-12T09:31:51.901Z,38.47
2023-02-12T09:34:19.877Z,37.40
2023-02-12T09:36:47.704Z,36.70
2023-02-12T09:39:16.875Z,37.35
2023-02-12T09:42:12.728Z,36.50
2023-02-12T09:44:47.434Z,36.70
2023-02-12T09:47:22.400Z,37.88
2023-02-12T09:50:13.611Z,35.47
2023-02-12T09:52:42.050Z,35.42
2023-02-12T09:55:16.389Z,33.35
2023-02-12T09:57:44.570Z,32.55
2023-02-12T10:00:17.754Z,32.90
2023-02-12T10:02:45.880Z,33.85
2023-02-12T10:05:18.645Z,32.60
2023-02-12T10:08:07.489Z,31.30
2023-02-12T10:10:49.598Z,30.20
2023-02-12T10:13:28.408Z,29.50
2023-02-12T10:16:05.859Z,29.40
2023-02-12T10:18:50.843Z,28.55
2023-02-12T10:21:33.256Z,30.92
2023-02-12T10:24:21.609Z,29.35
2023-02-12T10:26:54.038Z,28.92
2023-02-12T10:34:34.649Z,25.60
2023-02-12T10:37:06.882Z,26.75
2023-02-12T10:42:13.514Z,25.20
2023-02-12T10:44:41.497Z,22.02
2023-02-12T10:47:16.892Z,24.55
2023-02-12T10:49:44.704Z,26.65
2023-02-12T10:52:22.221Z,23.58
2023-02-12T10:54:50.216Z,23.50
2023-02-12T10:57:24.996Z,23.80
2023-02-12T10:59:54.866Z,24.58
2023-02-12T11:02:26.536Z,22.17
2023-02-12T11:04:55.836Z,22.33
2023-02-12T11:07:25.005Z,23.00
2023-02-12T11:09:54.504Z,22.40
2023-02-12T11:12:36.963Z,23.35
2023-02-12T11:15:14.386Z,21.70
2023-02-12T11:17:44.364Z,22.65
2023-02-12T11:20:25.397Z,23.55
2023-02-12T11:22:56.217Z,24.13
2023-02-12T11:25:25.637Z,23.80
2023-02-12T11:28:19.695Z,24.75
2023-02-12T11:30:53.252Z,27.92
2023-02-12T11:33:25.835Z,22.35
2023-02-12T11:35:56.782Z,23.10
2023-02-12T11:38:28.161Z,23.23
2023-02-12T11:41:00.559Z,24.17
2023-02-12T11:43:31.528Z,23.08
2023-02-12T11:46:01.316Z,25.02
2023-02-12T11:48:32.966Z,24.13
2023-02-12T11:51:03.967Z,23.53
2023-02-12T11:53:35.864Z,24.88
2023-02-12T11:56:05.459Z,25.48
2023-02-12T11:58:35.063Z,25.42
2023-02-12T12:01:07.224Z,24.65
2023-02-12T12:03:40.428Z,25.00
2023-02-12T12:06:15.501Z,25.30
2023-02-12T12:08:47.559Z,24.45
2023-02-12T12:11:20.708Z,24.35
2023-02-12T12:13:55.404Z,24.75
2023-02-12T12:16:48.417Z,24.65
2023-02-12T12:19:52.368Z,23.48
2023-02-12T12:22:30.445Z,22.48
2023-02-12T12:25:06.738Z,23.83
2023-02-12T12:28:13.758Z,23.20
2023-02-12T12:31:07.911Z,22.45
2023-02-12T12:33:42.419Z,23.77
2023-02-12T12:36:37.364Z,24.05
2023-02-12T12:39:13.138Z,25.73
2023-02-12T12:41:52.900Z,25.88
2023-02-12T12:44:35.618Z,25.13
2023-02-12T12:49:54.217Z,25.48
2023-02-12T12:53:01.962Z,24.33
2023-02-12T12:56:00.685Z,25.25
2023-02-12T12:58:40.902Z,25.40
2023-02-12T13:01:26.859Z,24.85
2023-02-12T13:04:38.571Z,24.25
2023-02-12T13:07:19.898Z,25.25
2023-02-12T13:10:00.014Z,24.85
2023-02-12T13:12:44.395Z,24.27
2023-02-12T13:15:23.011Z,24.38
2023-02-12T13:17:58.368Z,25.40
2023-02-12T13:20:37.789Z,27.33
2023-02-12T13:23:12.989Z,27.95
2023-02-12T13:25:46.063Z,26.90
2023-02-12T13:28:20.145Z,26.02
2023-02-12T13:30:51.510Z,26.35
2023-02-12T13:33:23.461Z,25.98
2023-02-12T13:35:56.219Z,27.10
2023-02-12T13:38:28.000Z,26.05
2023-02-12T13:41:00.550Z,26.10
2023-02-12T13:46:13.411Z,25.90
2023-02-12T13:48:53.921Z,25.95
2023-02-12T13:51:33.343Z,26.63
2023-02-12T13:54:14.606Z,25.75
2023-02-12T13:56:44.853Z,25.75
2023-02-12T13:59:42.117Z,25.67
2023-02-12T14:02:42.662Z,24.73
2023-02-12T14:05:21.686Z,35.58
2023-02-12T14:07:53.616Z,28.63
2023-02-12T14:10:24.748Z,24.88
2023-02-12T14:12:54.530Z,25.42
2023-02-12T14:15:34.939Z,25.95
2023-02-12T14:18:22.068Z,25.23
2023-02-12T14:21:10.184Z,25.95
2023-02-12T14:23:39.872Z,25.58
2023-02-12T14:26:12.269Z,26.13
2023-02-12T14:28:52.723Z,26.08
2023-02-12T14:31:36.178Z,25.83
2023-02-12T14:34:40.396Z,26.25
2023-02-12T14:37:13.662Z,26.80
2023-02-12T14:39:42.860Z,25.60
2023-02-12T14:42:56.790Z,26.23
2023-02-12T14:45:35.762Z,25.00
2023-02-12T14:48:06.124Z,25.38
2023-02-12T14:50:43.766Z,25.85
2023-02-12T14:53:31.631Z,25.90
2023-02-12T14:56:02.282Z,24.17
2023-02-12T14:58:31.755Z,25.33
2023-02-12T15:01:02.418Z,26.70
2023-02-12T15:03:43.964Z,26.02
2023-02-12T15:06:17.557Z,26.52
2023-02-12T15:08:51.577Z,26.40
2023-02-12T15:11:35.103Z,25.67
2023-02-12T15:14:07.687Z,25.83
2023-02-12T15:16:44.834Z,24.67
2023-02-12T15:19:21.964Z,25.58
2023-02-12T15:21:54.402Z,25.95
2023-02-12T15:26:53.531Z,24.92
2023-02-12T15:29:25.352Z,24.65
2023-02-12T15:31:55.336Z,26.10
2023-02-12T15:34:25.873Z,24.25
2023-02-12T15:36:55.751Z,25.00
2023-02-12T15:39:24.997Z,25.70
2023-02-12T15:41:54.965Z,24.67
2023-02-12T15:44:28.078Z,24.88
2023-02-12T15:46:58.282Z,25.23
2023-02-12T15:49:30.193Z,25.20
2023-02-12T15:51:59.990Z,24.88
2023-02-12T15:54:28.584Z,26.00
2023-02-12T15:56:58.043Z,26.00
2023-02-12T15:59:29.267Z,26.50
2023-02-12T16:01:59.558Z,27.02
2023-02-12T16:04:31.603Z,26.13
2023-02-12T16:07:00.122Z,26.38
2023-02-12T16:09:31.553Z,26.55
2023-02-12T16:12:04.658Z,26.77
2023-02-12T16:14:40.858Z,26.65
2023-02-12T16:17:22.575Z,26.80
2023-02-12T16:19:58.575Z,27.10
2023-02-12T16:22:30.094Z,26.70
2023-02-12T16:24:58.043Z,26.25
2023-02-12T16:27:30.304Z,25.98
2023-02-12T16:30:01.230Z,26.77
2023-02-12T16:32:33.851Z,27.05
2023-02-12T16:35:03.976Z,27.23
2023-02-12T16:37:49.244Z,27.02
2023-02-12T16:40:28.099Z,26.08
2023-02-12T16:43:04.170Z,27.65
2023-02-12T16:45:40.446Z,27.48
2023-02-12T16:48:16.154Z,28.45
2023-02-12T16:50:50.837Z,26.55
2023-02-12T16:53:37.058Z,25.77
2023-02-12T16:56:06.519Z,26.20
2023-02-12T16:58:35.908Z,26.45
2023-02-12T17:01:05.672Z,27.90
2023-02-12T17:03:34.680Z,26.63
2023-02-12T17:06:02.810Z,25.00
2023-02-12T17:08:30.530Z,26.95
2023-02-12T17:10:58.273Z,25.60
2023-02-12T17:13:26.040Z,25.75
2023-02-12T17:15:58.411Z,25.58
2023-02-12T17:18:26.687Z,26.73
2023-02-12T17:20:57.312Z,25.13
2023-02-12T17:23:25.678Z,24.92
2023-02-12T17:25:53.997Z,25.58
2023-02-12T17:28:22.855Z,25.25
2023-02-12T17:30:50.778Z,25.20
2023-02-12T17:33:20.638Z,24.95
2023-02-12T17:35:48.787Z,24.38
2023-02-12T17:38:16.526Z,25.60
2023-02-12T17:40:44.380Z,26.25
2023-02-12T17:43:12.289Z,25.85
2023-02-12T17:45:43.087Z,26.30
2023-02-12T17:48:11.730Z,24.98
2023-02-12T17:50:41.571Z,25.55
2023-02-12T17:53:10.021Z,24.98
2023-02-12T17:55:39.232Z,25.55
2023-02-12T17:58:07.283Z,26.83
2023-02-12T18:00:35.418Z,26.08
2023-02-12T18:03:03.396Z,24.70
2023-02-12T18:05:31.238Z,25.88
2023-02-12T18:08:02.245Z,24.33
2023-02-12T18:10:30.113Z,24.83
2023-02-12T18:12:57.941Z,24.58
2023-02-12T18:15:26.806Z,25.67
2023-02-12T18:17:54.541Z,25.10
2023-02-12T18:20:22.592Z,25.00
2023-02-12T18:22:50.984Z,25.85
2023-02-12T18:25:20.137Z,28.45
2023-02-12T18:27:49.943Z,26.08
2023-02-12T18:30:18.138Z,27.30
2023-02-12T18:32:45.943Z,27.42
2023-02-12T18:35:14.713Z,27.52
2023-02-12T18:37:43.479Z,28.10
2023-02-12T18:40:15.857Z,26.90
2023-02-12T18:42:45.117Z,29.08
2023-02-12T18:45:13.431Z,28.98
2023-02-12T18:47:41.251Z,29.48
2023-02-12T18:50:10.216Z,29.00
2023-02-12T18:52:38.053Z,30.42
2023-02-12T18:55:06.770Z,31.80
2023-02-12T18:57:34.488Z,34.10
2023-02-12T19:00:04.740Z,35.97
2023-02-12T19:02:32.709Z,33.42
2023-02-12T19:05:00.974Z,35.05
2023-02-12T19:07:28.775Z,29.73
2023-02-12T19:09:56.592Z,31.17
2023-02-12T19:12:25.915Z,30.55
2023-02-12T19:14:53.617Z,30.40
2023-02-12T19:17:22.674Z,29.83
2023-02-12T19:19:50.925Z,30.92
2023-02-12T19:22:18.946Z,30.40
2023-02-12T19:24:47.305Z,31.27
2023-02-12T19:27:15.151Z,30.67
2023-02-12T19:29:43.226Z,33.10
2023-02-12T19:32:10.964Z,31.77
2023-02-12T19:34:40.104Z,32.70
2023-02-12T19:37:10.926Z,32.47
2023-02-12T19:39:39.359Z,32.47
2023-02-12T19:42:07.387Z,32.47
2023-02-12T19:44:35.087Z,34.17
2023-02-12T19:47:02.884Z,36.00
2023-02-12T19:49:31.067Z,34.55
2023-02-12T19:52:00.157Z,34.88
2023-02-12T19:54:27.901Z,34.88
2023-02-12T19:56:57.657Z,36.72
2023-02-12T19:59:26.890Z,36.20
2023-02-12T20:01:56.452Z,37.53
2023-02-12T20:04:25.069Z,37.95
2023-02-12T20:06:53.189Z,37.83
2023-02-12T20:09:23.733Z,37.83
2023-02-12T20:11:52.335Z,36.40
2023-02-12T20:14:22.567Z,36.80
2023-02-12T20:16:51.144Z,37.50
2023-02-12T20:19:21.477Z,37.20
2023-02-12T20:21:54.241Z,37.58
2023-02-12T20:24:24.277Z,37.80
2023-02-12T20:26:52.102Z,35.90
2023-02-12T20:29:19.797Z,38.92
2023-02-12T20:31:47.991Z,37.45
2023-02-12T20:34:21.998Z,36.80
2023-02-12T20:36:49.767Z,37.17
2023-02-12T20:39:19.350Z,37.20
2023-02-12T20:41:48.905Z,37.83
2023-02-12T20:44:19.950Z,38.80
2023-02-12T20:46:50.038Z,36.65
2023-02-12T20:49:20.514Z,36.38
2023-02-12T20:51:50.743Z,38.33
2023-02-12T20:54:18.474Z,38.60
2023-02-12T20:56:46.313Z,37.13
2023-02-12T20:59:15.306Z,37.13
2023-02-12T21:01:43.711Z,37.55
2023-02-12T21:04:13.607Z,37.97
2023-02-12T21:06:42.547Z,37.55
2023-02-12T21:09:11.374Z,37.92
2023-02-12T21:11:39.997Z,38.40
2023-02-12T21:14:21.313Z,37.63
2023-02-12T21:16:51.494Z,37.15
2023-02-12T21:19:19.534Z,36.08
2023-02-12T21:21:47.788Z,36.58
2023-02-12T21:24:18.535Z,37.58
2023-02-12T21:26:48.204Z,37.60
2023-02-12T21:29:15.949Z,35.80
2023-02-12T21:31:45.484Z,35.25
2023-02-12T21:34:18.172Z,34.40
2023-02-12T21:36:48.266Z,33.90
2023-02-12T21:39:24.222Z,34.47
2023-02-12T21:41:53.124Z,34.22
2023-02-12T21:44:22.336Z,33.17
2023-02-12T21:46:50.223Z,33.15
2023-02-12T21:49:24.781Z,31.52
2023-02-12T21:51:58.482Z,32.97
2023-02-12T21:54:27.519Z,32.53
2023-02-12T21:56:55.884Z,31.42
2023-02-12T21:59:24.690Z,31.45
2023-02-12T22:01:55.228Z,32.72
2023-02-12T22:04:24.295Z,31.45
2023-02-12T22:06:53.985Z,30.17
2023-02-12T22:09:23.362Z,30.10
2023-02-12T22:11:52.946Z,29.48
2023-02-12T22:14:22.392Z,29.10
2023-02-12T22:16:50.477Z,29.83
2023-02-12T22:19:18.310Z,28.85
2023-02-12T22:21:51.250Z,26.70
2023-02-12T22:24:18.970Z,27.25
2023-02-12T22:26:46.673Z,27.52
2023-02-12T22:29:16.666Z,26.15
2023-02-12T22:31:46.316Z,27.70
2023-02-12T22:34:15.753Z,25.45
2023-02-12T22:36:45.241Z,23.80
2023-02-12T22:39:15.304Z,22.98
2023-02-12T22:41:43.374Z,22.98
2023-02-12T22:44:12.345Z,22.77
2023-02-12T22:46:40.122Z,21.23
2023-02-12T22:49:07.793Z,22.70
2023-02-12T22:51:36.939Z,23.67
2023-02-12T22:54:06.141Z,24.73
2023-02-12T22:56:35.275Z,26.10
2023-02-12T22:59:03.061Z,26.55
2023-02-12T23:01:31.453Z,25.92
2023-02-12T23:03:59.422Z,24.00
2023-02-12T23:06:29.596Z,25.40
2023-02-12T23:08:59.708Z,25.13
2023-02-12T23:11:28.886Z,24.83
2023-02-12T23:13:58.379Z,23.85
2023-02-12T23:16:26.284Z,24.17
2023-02-12T23:18:56.462Z,24.15
2023-02-12T23:21:24.671Z,21.98
2023-02-12T23:23:52.676Z,21.75
2023-02-12T23:26:20.659Z,20.48
2023-02-12T23:28:48.356Z,21.08
2023-02-12T23:31:17.866Z,20.30
2023-02-12T23:33:45.695Z,21.45
2023-02-12T23:36:13.451Z,21.10
2023-02-12T23:38:41.145Z,20.13
2023-02-12T23:41:08.889Z,22.05
2023-02-12T23:43:36.681Z,21.15
2023-02-12T23:46:04.840Z,20.17
2023-02-12T23:48:33.941Z,19.35
2023-02-12T23:51:01.684Z,20.17
2023-02-12T23:53:29.367Z,19.48
2023-02-12T23:55:57.093Z,18.02
2023-02-12T23:58:24.781Z,19.75
